Time;durP1;ratioP1;P1;durP2;ratioP2;P2;SDS_P1;SDS_P2;PMS_P1;PMS_P2;Temp;Humidity;BMP_temperature;BMP_pressure;BME280_temperature;BME280_humidity;BME280_pressure;Samples;Min_cycle;Max_cycle;Signal;HPM_P1;HPM_P2
2021/06/15 00:00:17;;;;;;;4.90;2.50;;;;;;;13.50;62.51;95113.78;5062765;28;20448;-69
2021/06/15 00:02:45;;;;;;;4.87;2.47;;;;;;;13.41;62.70;95100.34;5070510;28;20437;-68
2021/06/15 00:05:13;;;;;;;3.27;2.53;;;;;;;13.44;63.31;95101.66;5065983;28;20445;-69
2021/06/15 00:07:41;;;;;;;3.80;2.57;;;;;;;13.55;62.73;95103.22;5061170;28;20453;-68
2021/06/15 00:10:14;;;;;;;4.63;2.50;;;;;;;13.37;62.93;95101.16;5069383;28;20919;-69
2021/06/15 00:12:41;;;;;;;3.07;2.53;;;;;;;13.48;62.70;95102.72;5060515;28;20451;-69
2021/06/15 00:15:10;;;;;;;4.17;2.70;;;;;;;13.38;63.15;95100.09;5052091;28;20525;-70
2021/06/15 00:17:37;;;;;;;4.37;2.73;;;;;;;13.42;63.04;95103.78;5069708;28;20489;-70
2021/06/15 00:20:05;;;;;;;3.40;2.40;;;;;;;13.29;63.20;95102.50;5055140;28;20450;-70
2021/06/15 00:22:32;;;;;;;2.93;2.57;;;;;;;13.54;62.56;95104.28;5063248;28;20958;-68
2021/06/15 00:24:59;;;;;;;2.73;2.30;;;;;;;13.23;63.38;95099.09;5048583;28;20891;-70
2021/06/15 00:27:29;;;;;;;2.50;2.30;;;;;;;13.26;62.79;95100.41;5063496;28;20938;-68
2021/06/15 00:29:57;;;;;;;4.53;2.50;;;;;;;13.28;62.71;95100.94;5062307;28;20811;-70
2021/06/15 00:32:25;;;;;;;5.00;2.33;;;;;;;13.64;61.90;95099.78;5069638;28;20473;-68
2021/06/15 00:34:55;;;;;;;3.33;2.40;;;;;;;14.02;61.06;95093.00;5058795;28;21010;-68
2021/06/15 00:37:22;;;;;;;6.13;2.50;;;;;;;14.12;60.79;95098.25;5060585;28;20563;-69
2021/06/15 00:39:49;;;;;;;5.10;2.60;;;;;;;13.76;61.70;95104.72;5049428;28;20451;-68
2021/06/15 00:42:16;;;;;;;3.03;2.30;;;;;;;13.84;61.16;95106.81;5067412;28;20824;-69
2021/06/15 00:44:43;;;;;;;2.70;2.40;;;;;;;13.98;60.98;95107.78;5068191;28;20850;-69
2021/06/15 00:47:11;;;;;;;3.17;2.30;;;;;;;13.92;60.84;95108.88;5068077;28;20438;-69
2021/06/15 00:49:39;;;;;;;2.83;2.50;;;;;;;13.64;61.19;95106.88;5059721;28;20443;-70
2021/06/15 00:52:08;;;;;;;3.67;2.50;;;;;;;13.62;61.80;95125.59;5064529;28;20470;-69
2021/06/15 00:54:36;;;;;;;4.53;2.70;;;;;;;13.42;62.11;95124.84;5059164;28;20439;-70
2021/06/15 00:57:04;;;;;;;6.63;2.87;;;;;;;13.72;61.55;95114.22;5062939;28;21094;-69
2021/06/15 00:59:31;;;;;;;3.33;2.30;;;;;;;13.61;61.68;95112.69;5069395;28;20434;-69
2021/06/15 01:01:58;;;;;;;5.23;2.87;;;;;;;13.44;62.62;95114.84;5068871;28;20446;-68
2021/06/15 01:04:26;;;;;;;2.90;2.30;;;;;;;13.42;62.24;95114.31;5052076;28;20534;-68
2021/06/15 01:06:58;;;;;;;4.03;2.37;;;;;;;13.65;61.96;95122.41;5069256;28;21000;-68
2021/06/15 01:09:32;;;;;;;2.83;2.30;;;;;;;13.41;62.67;95118.00;5059930;28;20887;-68
2021/06/15 01:12:37;;;;;;;4.37;2.50;;;;;;;13.23;62.91;95122.78;5050061;28;20438;-68
2021/06/15 01:15:15;;;;;;;19.37;2.63;;;;;;;13.53;62.77;95115.88;5051288;28;20453;-71
2021/06/15 01:17:57;;;;;;;3.40;3.00;;;;;;;13.39;62.09;95099.06;5058822;28;20570;-69
2021/06/15 01:20:37;;;;;;;6.33;2.70;;;;;;;13.49;62.18;95112.19;5063280;28;20521;-68
2021/06/15 01:23:07;;;;;;;2.67;2.40;;;;;;;13.59;61.91;95115.59;5048149;28;20447;-68
2021/06/15 01:25:48;;;;;;;6.13;3.03;;;;;;;13.73;61.42;95115.81;5067497;28;20529;-67
2021/06/15 01:28:20;;;;;;;3.53;2.60;;;;;;;13.66;61.58;95110.03;5069437;28;20823;-68
2021/06/15 01:31:08;;;;;;;2.73;2.50;;;;;;;13.41;62.71;95112.75;5068420;28;20449;-69
2021/06/15 01:33:43;;;;;;;5.23;2.53;;;;;;;13.18;63.20;95104.38;5054635;28;20533;-68
2021/06/15 01:36:15;;;;;;;3.20;2.67;;;;;;;13.11;63.33;95097.81;5048190;28;21021;-67
2021/06/15 01:38:56;;;;;;;8.17;2.73;;;;;;;12.91;63.96;95093.34;5066414;28;20509;-69
2021/06/15 01:41:39;;;;;;;4.97;3.20;;;;;;;13.10;63.72;95091.75;5067729;28;20450;-69
2021/06/15 01:44:09;;;;;;;7.80;2.90;;;;;;;12.93;63.99;95091.22;5053367;28;20434;-68
2021/06/15 01:47:08;;;;;;;2.80;2.50;;;;;;;13.02;64.15;95087.03;5066715;28;20503;-69
2021/06/15 01:49:46;;;;;;;3.00;2.67;;;;;;;13.02;63.62;95084.41;5070180;28;20443;-68
2021/06/15 01:52:16;;;;;;;3.40;2.67;;;;;;;12.48;64.87;95087.81;5064925;28;20435;-67
2021/06/15 01:54:47;;;;;;;3.57;2.70;;;;;;;12.86;64.71;95084.66;5057269;28;20462;-69
2021/06/15 01:57:22;;;;;;;3.80;2.50;;;;;;;12.97;63.83;95080.97;5068689;28;20493;-68
2021/06/15 02:00:00;;;;;;;5.63;3.00;;;;;;;12.89;64.06;95078.84;5067150;28;20521;-69
2021/06/15 02:02:31;;;;;;;6.10;2.80;;;;;;;12.84;64.29;95076.25;5065336;28;20510;-70
2021/06/15 02:04:59;;;;;;;4.03;2.63;;;;;;;12.90;63.65;95069.94;5047116;28;20443;-68
2021/06/15 02:07:29;;;;;;;7.00;3.00;;;;;;;13.09;63.66;95077.03;5047937;28;20431;-69
2021/06/15 02:10:11;;;;;;;4.17;2.53;;;;;;;12.84;64.05;95077.03;5066841;28;20439;-70
2021/06/15 02:13:00;;;;;;;2.93;2.63;;;;;;;12.96;63.92;95074.09;5070682;28;20453;-69
2021/06/15 02:15:43;;;;;;;4.33;2.87;;;;;;;13.05;63.75;95062.81;5065422;28;20438;-68
2021/06/15 02:18:31;;;;;;;6.43;2.80;;;;;;;13.07;63.79;95057.28;5052265;28;20493;-69
2021/06/15 02:21:13;;;;;;;4.10;2.60;;;;;;;13.29;63.26;95072.75;5070608;28;20499;-68
2021/06/15 02:23:43;;;;;;;7.30;2.90;;;;;;;12.95;64.21;95073.34;5068997;28;20461;-68
2021/06/15 02:26:15;;;;;;;4.23;2.57;;;;;;;13.29;63.45;95080.66;5060852;28;20958;-69
2021/06/15 02:28:50;;;;;;;9.23;2.90;;;;;;;13.23;63.19;95074.63;5054746;28;20550;-68
2021/06/15 02:31:26;;;;;;;4.77;3.07;;;;;;;13.33;62.90;95079.06;5052180;28;21064;-68
2021/06/15 02:34:08;;;;;;;8.80;2.83;;;;;;;13.34;62.65;95078.03;5053982;28;20828;-68
2021/06/15 02:36:40;;;;;;;4.83;2.97;;;;;;;13.49;62.30;95083.22;5070204;28;20437;-67
2021/06/15 02:39:10;;;;;;;7.50;3.10;;;;;;;13.48;62.11;95085.09;5058917;28;20878;-67
2021/06/15 02:41:40;;;;;;;4.37;2.60;;;;;;;13.41;62.25;95081.94;5072356;28;20449;-68
2021/06/15 02:44:08;;;;;;;5.10;2.83;;;;;;;13.39;62.16;95072.75;5057902;28;20452;-67
2021/06/15 02:46:37;;;;;;;5.23;3.13;;;;;;;13.40;61.92;95080.38;5057968;28;20435;-69
2021/06/15 02:49:12;;;;;;;6.77;3.13;;;;;;;13.16;62.48;95082.78;5070207;28;20446;-69
2021/06/15 02:51:50;;;;;;;4.53;2.97;;;;;;;13.57;61.99;95069.53;5072057;28;20441;-67
2021/06/15 02:54:30;;;;;;;4.57;2.80;;;;;;;13.46;61.60;95092.47;5057662;28;20442;-67
2021/06/15 02:56:59;;;;;;;7.07;3.10;;;;;;;13.29;62.29;95083.28;5070509;28;20543;-69
2021/06/15 02:59:26;;;;;;;3.70;2.90;;;;;;;13.28;62.24;95097.50;5071805;28;20777;-69
2021/06/15 03:01:54;;;;;;;7.40;3.10;;;;;;;13.33;62.17;95084.34;5071700;28;20446;-69
2021/06/15 03:04:34;;;;;;;4.90;2.97;;;;;;;13.34;62.23;95093.81;5071519;28;20430;-69
2021/06/15 03:07:02;;;;;;;4.90;3.13;;;;;;;13.28;62.01;95102.78;5052368;28;20447;-69
2021/06/15 03:09:29;;;;;;;4.10;2.87;;;;;;;13.42;61.75;95104.56;5062808;28;20433;-69
2021/06/15 03:12:11;;;;;;;4.23;3.10;;;;;;;13.57;61.91;95122.19;5069893;28;20462;-70
2021/06/15 03:14:48;;;;;;;4.70;3.10;;;;;;;13.34;62.18;95128.03;5069863;28;20446;-69
2021/06/15 03:17:17;;;;;;;3.53;3.03;;;;;;;13.30;62.14;95132.25;5071269;28;20924;-68
2021/06/15 03:19:58;;;;;;;3.50;3.00;;;;;;;13.38;62.08;95139.59;5057772;28;21034;-69
2021/06/15 03:22:40;;;;;;;9.23;3.40;;;;;;;13.46;61.38;95147.75;5056277;28;20456;-69
2021/06/15 03:25:09;;;;;;;4.70;3.20;;;;;;;13.41;62.16;95158.25;5068547;28;20450;-68
2021/06/15 03:27:42;;;;;;;5.67;3.40;;;;;;;13.31;62.60;95160.94;5070024;28;20895;-68
2021/06/15 03:30:12;;;;;;;3.80;3.40;;;;;;;12.95;63.26;95151.44;5070641;28;20446;-68
2021/06/15 03:32:51;;;;;;;4.57;3.80;;;;;;;13.17;63.16;95171.19;5056146;28;20492;-68
2021/06/15 03:35:21;;;;;;;8.33;3.80;;;;;;;13.32;62.20;95182.78;5068635;28;20446;-68
2021/06/15 03:37:53;;;;;;;6.67;3.60;;;;;;;13.44;62.24;95176.19;5068276;28;20862;-69
2021/06/15 03:40:23;;;;;;;4.90;3.70;;;;;;;13.54;62.01;95172.75;5062098;28;20572;-68
2021/06/15 03:42:52;;;;;;;5.97;3.47;;;;;;;13.52;62.01;95169.59;5063067;28;20847;-67
2021/06/15 03:45:23;;;;;;;8.13;3.67;;;;;;;13.33;62.24;95165.91;5053655;28;20995;-65
2021/06/15 03:47:52;;;;;;;4.93;3.77;;;;;;;13.34;62.75;95154.34;5058087;28;20434;-69
2021/06/15 03:50:21;;;;;;;4.50;4.03;;;;;;;13.50;62.35;95153.25;5066790;28;20430;-67
2021/06/15 03:52:52;;;;;;;6.80;4.10;;;;;;;13.42;62.43;95146.69;5054451;28;20542;-67
2021/06/15 03:55:22;;;;;;;7.97;4.40;;;;;;;13.23;62.46;95142.25;5061084;28;20452;-68
2021/06/15 03:57:51;;;;;;;6.53;3.93;;;;;;;13.37;62.56;95153.81;5067659;28;20477;-73
2021/06/15 04:00:20;;;;;;;5.30;4.50;;;;;;;13.23;63.26;95158.06;5066461;28;20433;-69
2021/06/15 04:02:50;;;;;;;5.50;4.17;;;;;;;13.17;63.23;95157.25;5066411;28;20438;-67
2021/06/15 04:05:19;;;;;;;4.90;4.03;;;;;;;13.15;63.17;95170.69;5068435;28;20472;-71
2021/06/15 04:07:47;;;;;;;5.30;4.77;;;;;;;13.43;62.59;95158.03;5069540;28;20438;-72
2021/06/15 04:10:15;;;;;;;5.37;3.83;;;;;;;13.01;63.46;95177.47;5066408;28;20684;-67
2021/06/15 04:12:45;;;;;;;5.50;4.20;;;;;;;13.30;63.22;95176.97;5067362;28;20497;-74
2021/06/15 04:15:13;;;;;;;5.67;4.13;;;;;;;13.21;63.36;95181.97;5065592;28;20442;-69
2021/06/15 04:17:45;;;;;;;5.73;4.57;;;;;;;12.83;64.38;95179.84;5068060;28;20458;-69
2021/06/15 04:20:14;;;;;;;5.47;4.53;;;;;;;13.03;63.46;95183.31;5067691;28;21033;-67
2021/06/15 04:22:47;;;;;;;6.57;4.40;;;;;;;13.35;63.25;95187.50;5068776;28;20434;-68
2021/06/15 04:25:21;;;;;;;4.63;4.23;;;;;;;13.13;63.67;95188.56;5068288;28;20975;-67
2021/06/15 04:27:49;;;;;;;8.77;5.03;;;;;;;12.95;63.90;95190.91;5066839;28;20472;-65
2021/06/15 04:30:19;;;;;;;7.77;5.43;;;;;;;12.82;64.18;95179.06;5065878;28;20457;-67
2021/06/15 04:32:52;;;;;;;7.90;5.07;;;;;;;13.07;64.08;95180.94;5066905;28;20466;-70
2021/06/15 04:35:28;;;;;;;8.00;5.47;;;;;;;13.19;63.74;95192.00;5067515;28;20933;-69
2021/06/15 04:38:03;;;;;;;8.03;5.33;;;;;;;12.90;65.03;95190.91;5067346;28;21005;-70
2021/06/15 04:40:41;;;;;;;6.77;5.10;;;;;;;13.09;64.83;95190.16;5066970;28;20477;-70
2021/06/15 04:43:20;;;;;;;9.90;5.70;;;;;;;13.25;64.63;95188.28;5068194;28;20441;-72
2021/06/15 04:45:47;;;;;;;8.70;5.77;;;;;;;12.99;64.74;95195.38;5065521;28;20437;-69
2021/06/15 04:48:30;;;;;;;11.17;6.20;;;;;;;13.11;64.82;95190.69;5066747;28;20446;-68
2021/06/15 04:51:01;;;;;;;7.13;4.87;;;;;;;13.26;64.46;95199.63;5065547;28;20449;-69
2021/06/15 04:53:37;;;;;;;7.13;5.00;;;;;;;13.26;64.51;95186.44;5065635;28;20826;-67
2021/06/15 04:56:06;;;;;;;76.97;65.10;;;;;;;13.31;64.53;95192.50;5067699;28;20834;-69
2021/06/15 04:58:34;;;;;;;12.20;10.90;;;;;;;13.48;64.05;95173.78;5068096;28;20486;-68
2021/06/15 05:01:02;;;;;;;9.53;6.37;;;;;;;13.62;63.49;95191.41;5067383;28;21273;-69
2021/06/15 05:03:30;;;;;;;7.90;5.77;;;;;;;13.74;63.83;95201.66;5063323;28;20853;-69
2021/06/15 05:06:03;;;;;;;7.27;5.13;;;;;;;13.96;62.63;95188.94;5064038;28;21021;-71
2021/06/15 05:08:35;;;;;;;6.47;4.70;;;;;;;13.50;63.03;95190.13;5065961;28;20499;-68
2021/06/15 05:11:03;;;;;;;7.17;5.43;;;;;;;13.83;62.62;95189.53;5065613;28;20497;-70
2021/06/15 05:13:33;;;;;;;7.13;5.50;;;;;;;13.50;63.10;95198.00;5063757;28;20427;-69
2021/06/15 05:16:01;;;;;;;7.90;6.00;;;;;;;13.53;63.37;95200.09;5066559;28;20453;-70
2021/06/15 05:18:28;;;;;;;12.03;5.93;;;;;;;13.42;63.36;95198.53;5067202;28;20477;-71
2021/06/15 05:20:55;;;;;;;9.37;6.00;;;;;;;13.89;63.91;95198.97;5067486;28;20484;-70
2021/06/15 05:24:11;;;;;;;99.63;75.50;;;;;;;14.25;62.26;95197.78;5068231;28;20447;-68
2021/06/15 05:26:38;;;;;;;16.20;9.87;;;;;;;14.41;61.95;95196.69;5025707;28;20825;-67
2021/06/15 05:29:05;;;;;;;11.37;6.37;;;;;;;14.50;62.41;95205.63;5055240;28;20446;-70
2021/06/15 05:31:31;;;;;;;8.80;5.57;;;;;;;14.10;61.96;95214.44;5057638;28;20467;-68
2021/06/15 05:33:58;;;;;;;8.97;6.07;;;;;;;13.92;61.95;95216.88;5065345;28;21173;-70
2021/06/15 05:36:25;;;;;;;9.20;6.20;;;;;;;14.20;62.31;95210.97;5061329;28;20430;-71
2021/06/15 05:38:52;;;;;;;8.43;6.67;;;;;;;14.51;61.02;95219.56;5068198;28;20492;-68
2021/06/15 05:41:19;;;;;;;7.70;6.30;;;;;;;14.63;61.32;95226.13;5057811;28;20542;-70
2021/06/15 05:43:46;;;;;;;10.07;6.03;;;;;;;14.72;61.13;95213.94;5050622;28;20456;-68
2021/06/15 05:46:13;;;;;;;7.47;6.03;;;;;;;14.87;61.08;95226.25;5059571;28;20853;-71
2021/06/15 05:48:40;;;;;;;7.50;6.33;;;;;;;14.34;61.83;95222.56;5066038;28;20442;-64
2021/06/15 05:51:07;;;;;;;12.37;7.03;;;;;;;14.51;60.94;95212.47;5060525;28;20962;-67
2021/06/15 05:53:34;;;;;;;8.57;6.63;;;;;;;14.46;60.80;95220.41;5073317;28;20454;-64
2021/06/15 05:56:00;;;;;;;8.23;6.17;;;;;;;14.92;60.13;95213.81;5062652;28;20444;-63
2021/06/15 05:58:28;;;;;;;8.73;7.07;;;;;;;14.91;60.17;95216.69;5063539;28;21010;-71
2021/06/15 06:00:54;;;;;;;8.50;6.87;;;;;;;14.69;60.89;95209.19;5072443;28;20519;-68
2021/06/15 06:03:29;;;;;;;10.17;6.70;;;;;;;14.54;59.94;95206.66;5074380;28;20566;-70
2021/06/15 06:08:47;;;;;;;7.57;6.17;;;;;;;14.44;61.08;95217.25;5066354;28;20442;-73
2021/06/15 06:11:13;;;;;;;9.10;6.30;;;;;;;14.35;60.96;95223.34;5052779;28;20504;-64
2021/06/15 06:13:40;;;;;;;9.57;7.17;;;;;;;14.29;61.70;95214.66;5056565;28;20426;-67
2021/06/15 06:16:12;;;;;;;13.57;6.70;;;;;;;14.82;61.09;95219.13;5062664;28;20443;-66
2021/06/15 06:18:39;;;;;;;7.33;6.30;;;;;;;14.84;60.48;95195.13;5066001;28;20498;-69
2021/06/15 06:21:09;;;;;;;8.67;6.47;;;;;;;15.17;59.85;95207.56;5061490;28;20438;-69
2021/06/15 06:23:37;;;;;;;8.67;6.03;;;;;;;15.19;59.58;95197.50;5070109;28;20442;-68
2021/06/15 06:26:04;;;;;;;10.23;6.23;;;;;;;15.03;59.50;95210.03;5052289;28;20462;-65
2021/06/15 06:28:31;;;;;;;9.97;6.57;;;;;;;14.99;59.53;95208.22;5066100;28;20442;-65
2021/06/15 06:30:58;;;;;;;7.43;6.53;;;;;;;14.85;59.72;95207.25;5051561;28;20482;-66
2021/06/15 06:33:25;;;;;;;8.53;6.30;;;;;;;15.03;60.28;95210.03;5065108;28;20963;-66
2021/06/15 06:35:53;;;;;;;8.63;6.50;;;;;;;15.11;60.17;95206.81;5052399;28;20435;-66
2021/06/15 06:38:19;;;;;;;8.53;6.37;;;;;;;14.93;59.48;95209.31;5066138;28;20469;-64
2021/06/15 06:40:46;;;;;;;8.67;6.43;;;;;;;14.83;60.09;95186.44;5058581;28;20434;-68
2021/06/15 06:43:14;;;;;;;8.53;6.30;;;;;;;15.24;58.63;95185.06;5059877;28;20869;-69
2021/06/15 06:45:41;;;;;;;9.80;6.60;;;;;;;15.18;58.62;95195.94;5071145;28;20495;-67
2021/06/15 06:48:09;;;;;;;9.57;6.77;;;;;;;15.25;58.88;95207.75;5060512;28;20542;-72
2021/06/15 06:50:37;;;;;;;9.50;6.80;;;;;;;14.88;58.92;95190.88;5069152;28;20817;-69
2021/06/15 06:53:04;;;;;;;10.73;6.40;;;;;;;15.38;58.50;95197.63;5072644;28;20452;-68
2021/06/15 06:55:32;;;;;;;7.00;6.30;;;;;;;15.41;58.69;95194.44;5071231;28;20470;-65
2021/06/15 06:58:00;;;;;;;8.83;6.97;;;;;;;15.82;57.75;95190.38;5071380;28;20466;-72
2021/06/15 07:00:28;;;;;;;11.53;6.77;;;;;;;16.09;56.36;95188.72;5070244;28;20521;-65
2021/06/15 07:02:55;;;;;;;10.83;6.37;;;;;;;15.61;57.37;95195.06;5071708;28;20431;-67
2021/06/15 07:05:22;;;;;;;7.40;5.83;;;;;;;15.78;57.07;95178.78;5071137;28;20454;-67
2021/06/15 07:07:51;;;;;;;7.30;5.87;;;;;;;16.24;56.70;95187.75;5071987;28;20446;-75
2021/06/15 07:10:19;;;;;;;9.03;5.50;;;;;;;16.02;55.89;95179.56;5052643;28;20447;-71
2021/06/15 07:12:47;;;;;;;7.27;5.83;;;;;;;16.30;55.43;95176.03;5051841;28;20446;-65
2021/06/15 07:15:15;;;;;;;10.10;5.97;;;;;;;16.12;54.97;95177.59;5066603;28;20819;-69
2021/06/15 07:17:42;;;;;;;9.27;5.37;;;;;;;15.87;55.70;95182.38;5062505;28;20211;-65
2021/06/15 07:20:09;;;;;;;8.50;5.97;;;;;;;15.93;56.08;95174.09;5052038;28;20447;-66
2021/06/15 07:22:37;;;;;;;10.00;5.80;;;;;;;16.03;56.37;95162.63;5070897;28;20437;-64
2021/06/15 07:25:04;;;;;;;10.83;6.13;;;;;;;16.38;56.00;95167.50;5070719;28;20437;-71
2021/06/15 07:27:31;;;;;;;7.00;5.67;;;;;;;16.53;55.27;95164.66;5057204;28;20943;-68
2021/06/15 07:29:58;;;;;;;11.30;5.60;;;;;;;16.66;54.75;95166.59;5058220;28;20462;-67
2021/06/15 07:32:25;;;;;;;7.73;5.10;;;;;;;16.71;53.42;95177.13;5054677;28;20533;-67
2021/06/15 07:34:52;;;;;;;8.30;5.37;;;;;;;16.24;54.05;95161.31;5070708;28;20442;-68
2021/06/15 07:37:19;;;;;;;8.17;5.10;;;;;;;16.77;53.87;95165.38;5070629;28;20448;-71
2021/06/15 07:39:46;;;;;;;9.07;5.43;;;;;;;16.45;53.68;95154.69;5070190;28;20491;-68
2021/06/15 07:42:13;;;;;;;5.83;5.00;;;;;;;16.75;54.66;95156.94;5070509;28;20442;-66
2021/06/15 07:44:40;;;;;;;8.97;5.23;;;;;;;17.22;55.17;95151.41;5059666;28;20458;-67
2021/06/15 07:47:07;;;;;;;7.77;5.40;;;;;;;17.35;52.72;95149.91;5064457;28;20450;-64
2021/06/15 07:49:34;;;;;;;6.13;5.10;;;;;;;16.92;52.54;95136.03;5050242;28;20447;-65
2021/06/15 07:52:01;;;;;;;10.30;5.30;;;;;;;16.99;54.27;95141.75;5062432;28;20891;-66
2021/06/15 07:54:35;;;;;;;7.00;4.93;;;;;;;17.36;52.67;95129.47;5050295;28;20449;-66
2021/06/15 07:57:06;;;;;;;7.90;5.00;;;;;;;17.19;52.81;95136.13;5050535;28;20447;-65
2021/06/15 07:59:33;;;;;;;6.83;4.70;;;;;;;17.59;52.36;95147.13;5057588;28;20485;-68
2021/06/15 08:02:00;;;;;;;6.67;4.30;;;;;;;17.78;51.56;95137.22;5070285;28;20442;-65
2021/06/15 08:04:27;;;;;;;5.93;4.67;;;;;;;17.58;50.22;95134.94;5055716;28;20468;-65
2021/06/15 08:06:54;;;;;;;6.37;5.00;;;;;;;17.53;50.34;95127.09;5070420;28;20453;-70
2021/06/15 08:09:21;;;;;;;8.43;4.30;;;;;;;17.12;52.17;95135.72;5058954;28;20625;-66
2021/06/15 08:11:48;;;;;;;5.33;4.27;;;;;;;17.15;51.44;95129.06;5052919;28;20866;-64
2021/06/15 08:14:15;;;;;;;5.70;4.13;;;;;;;17.48;51.27;95127.19;5069793;28;20477;-65
2021/06/15 08:16:42;;;;;;;6.57;4.10;;;;;;;17.75;50.39;95127.22;5069640;28;20442;-68
2021/06/15 08:19:09;;;;;;;12.93;5.13;;;;;;;18.33;49.79;95109.59;5062407;28;20525;-67
2021/06/15 08:21:35;;;;;;;6.27;4.03;;;;;;;17.74;50.50;95122.97;5050238;28;20450;-67
2021/06/15 08:24:03;;;;;;;6.27;4.23;;;;;;;17.52;51.05;95112.25;5049517;28;20439;-66
2021/06/15 08:26:30;;;;;;;5.70;3.60;;;;;;;18.23;50.13;95112.44;5050489;28;20474;-66
2021/06/15 08:28:57;;;;;;;6.80;4.10;;;;;;;18.41;48.77;95098.28;5063524;28;20435;-65
2021/06/15 08:31:23;;;;;;;3.90;3.50;;;;;;;18.13;49.13;95118.75;5059802;28;20482;-67
2021/06/15 08:33:50;;;;;;;10.00;4.17;;;;;;;18.74;50.48;95118.25;5052917;28;20493;-67
2021/06/15 08:36:17;;;;;;;4.53;2.70;;;;;;;18.32;47.25;95115.97;5070677;28;20887;-65
2021/06/15 08:38:44;;;;;;;12.33;3.60;;;;;;;18.53;47.20;95111.84;5063581;28;20487;-66
2021/06/15 08:41:16;;;;;;;6.60;3.67;;;;;;;18.21;47.57;95120.69;5059978;28;20474;-66
2021/06/15 08:43:43;;;;;;;9.47;3.30;;;;;;;18.44;47.63;95105.66;5054680;28;20438;-68
2021/06/15 08:46:12;;;;;;;7.53;3.47;;;;;;;18.39;47.71;95110.28;5069875;28;20450;-73
2021/06/15 08:48:39;;;;;;;7.10;3.30;;;;;;;18.75;47.03;95103.91;5069204;28;20446;-66
2021/06/15 08:51:06;;;;;;;3.90;2.80;;;;;;;18.02;47.67;95106.78;5069738;28;20434;-65
2021/06/15 08:53:37;;;;;;;6.33;3.53;;;;;;;18.73;47.19;95095.44;5069708;28;20464;-70
2021/06/15 08:56:28;;;;;;;4.40;3.27;;;;;;;19.37;45.95;95082.75;5049822;28;20450;-69
2021/06/15 08:59:06;;;;;;;9.30;3.47;;;;;;;19.10;44.94;95097.72;5050757;28;20486;-65
2021/06/15 09:01:33;;;;;;;6.10;3.23;;;;;;;19.47;45.10;95077.19;5069832;28;20473;-66
2021/06/15 09:04:01;;;;;;;6.87;3.60;;;;;;;19.75;45.66;95094.47;5054939;28;20445;-66
2021/06/15 09:06:28;;;;;;;7.27;3.73;;;;;;;20.13;45.51;95100.84;5054824;28;20500;-70
2021/06/15 09:08:59;;;;;;;6.20;3.40;;;;;;;19.86;45.22;95095.78;5055994;28;20438;-65
2021/06/15 09:11:45;;;;;;;4.07;2.90;;;;;;;19.99;44.80;95092.22;5069624;28;20446;-69
2021/06/15 09:14:13;;;;;;;5.47;3.13;;;;;;;19.91;44.50;95087.63;5068762;28;20875;-66
2021/06/15 09:16:45;;;;;;;5.67;3.17;;;;;;;20.15;43.93;95083.50;5068488;28;20441;-68
2021/06/15 09:19:21;;;;;;;8.57;3.20;;;;;;;19.74;44.52;95092.91;5068622;28;20471;-72
2021/06/15 09:21:50;;;;;;;7.60;3.33;;;;;;;20.23;43.51;95083.84;5063720;28;20515;-67
2021/06/15 09:24:22;;;;;;;6.10;2.70;;;;;;;20.39;43.91;95071.66;5060523;28;20445;-66
2021/06/15 09:27:08;;;;;;;16.97;4.23;;;;;;;20.72;42.99;95078.88;5059224;28;20805;-63
2021/06/15 09:29:53;;;;;;;14.23;3.77;;;;;;;20.89;43.51;95070.84;5063702;28;20210;-65
2021/06/15 09:32:23;;;;;;;6.80;3.07;;;;;;;20.88;42.75;95069.28;5056386;28;20477;-68
2021/06/15 09:34:54;;;;;;;7.80;3.00;;;;;;;20.68;41.84;95064.63;5062266;28;20466;-68
2021/06/15 09:37:41;;;;;;;4.63;2.37;;;;;;;20.54;43.49;95069.31;5070275;28;20677;-69
2021/06/15 09:40:28;;;;;;;8.57;3.13;;;;;;;20.93;42.52;95050.47;5058664;28;20492;-68
2021/06/15 09:43:09;;;;;;;5.73;2.67;;;;;;;21.06;42.72;95057.53;5073580;28;20441;-64
2021/06/15 09:45:39;;;;;;;10.40;3.40;;;;;;;21.10;42.00;95055.81;5072308;28;20522;-63
2021/06/15 09:48:32;;;;;;;4.07;2.13;;;;;;;21.06;40.09;95057.53;5073077;28;20446;-69
2021/06/15 09:51:03;;;;;;;3.50;2.37;;;;;;;20.77;39.66;95052.06;5059291;28;20623;-66
2021/06/15 09:53:38;;;;;;;4.33;2.63;;;;;;;20.49;40.60;95058.03;5059317;28;20184;-68
2021/06/15 09:56:10;;;;;;;6.60;2.20;;;;;;;20.76;41.18;95055.84;5059633;28;20295;-68
2021/06/15 09:58:39;;;;;;;15.17;3.57;;;;;;;20.66;41.18;95044.72;5072634;28;20449;-68
2021/06/15 10:01:30;;;;;;;14.33;3.57;;;;;;;20.54;40.89;95050.69;5061146;28;20700;-69
2021/06/15 10:04:06;;;;;;;9.30;2.47;;;;;;;21.32;42.78;95048.69;5068797;28;20457;-68
2021/06/15 10:06:34;;;;;;;8.20;2.53;;;;;;;21.11;40.33;95046.72;5052535;28;20239;-66
2021/06/15 10:09:01;;;;;;;3.80;2.93;;;;;;;20.46;40.54;95062.09;5052243;28;20242;-67
2021/06/15 10:11:28;;;;;;;4.40;2.37;;;;;;;20.81;40.48;95055.69;5066611;28;20195;-64
2021/06/15 10:13:57;;;;;;;9.67;2.40;;;;;;;20.77;39.86;95052.06;5072099;28;20396;-64
2021/06/15 10:16:24;;;;;;;5.70;2.20;;;;;;;20.87;41.54;95045.66;5072932;28;20206;-69
2021/06/15 10:18:51;;;;;;;3.87;1.90;;;;;;;20.99;39.84;95051.91;5057316;28;20527;-67
2021/06/15 10:21:18;;;;;;;2.30;1.60;;;;;;;20.78;39.11;95042.97;5061424;28;20697;-69
2021/06/15 10:23:46;;;;;;;4.63;1.77;;;;;;;21.35;39.86;95029.41;5050322;28;20576;-65
2021/06/15 10:26:12;;;;;;;4.63;2.00;;;;;;;21.48;39.22;95039.06;5052803;28;20184;-66
2021/06/15 10:28:40;;;;;;;2.60;1.67;;;;;;;21.43;38.75;95039.25;5065996;28;20691;-68
2021/06/15 10:31:07;;;;;;;4.53;2.00;;;;;;;21.03;39.22;95031.53;5052450;28;20228;-67
2021/06/15 10:33:46;;;;;;;4.13;2.10;;;;;;;21.25;39.45;95029.75;5051511;28;20201;-65
2021/06/15 10:36:14;;;;;;;6.30;1.87;;;;;;;21.36;39.77;95031.75;5052173;28;20192;-64
2021/06/15 10:38:44;;;;;;;4.90;2.03;;;;;;;21.53;39.50;95026.34;5065808;28;20501;-67
2021/06/15 10:41:23;;;;;;;4.83;2.00;;;;;;;21.67;38.50;95026.13;5052007;28;20225;-66
2021/06/15 10:43:58;;;;;;;4.30;2.07;;;;;;;21.67;38.27;95028.81;5055297;28;20393;-72
2021/06/15 10:46:34;;;;;;;3.70;1.70;;;;;;;21.71;37.45;95027.06;5072057;28;20203;-66
2021/06/15 10:49:07;;;;;;;3.00;1.60;;;;;;;21.21;37.20;95024.28;5066649;28;20256;-66
2021/06/15 10:51:40;;;;;;;3.63;1.50;;;;;;;20.93;38.10;95028.38;5063450;28;20449;-65
2021/06/15 10:54:38;;;;;;;7.17;2.00;;;;;;;21.32;38.33;95019.38;5068886;28;20209;-64
2021/06/15 10:57:28;;;;;;;4.30;1.63;;;;;;;21.78;37.93;95011.31;5068040;28;20537;-66
2021/06/15 11:00:05;;;;;;;8.80;2.10;;;;;;;21.85;39.28;95011.63;5063625;28;20216;-65
2021/06/15 11:02:35;;;;;;;11.07;3.50;;;;;;;21.87;38.27;94996.09;5053855;28;20188;-65
2021/06/15 11:05:40;;;;;;;5.53;1.93;;;;;;;22.60;38.08;95006.09;5061909;28;20200;-64
2021/06/15 11:08:26;;;;;;;6.30;1.70;;;;;;;22.29;35.19;95000.34;5071091;28;20623;-69
2021/06/15 11:10:53;;;;;;;3.07;1.57;;;;;;;22.15;35.88;95003.25;5071616;28;20188;-64
2021/06/15 11:14:02;;;;;;;10.57;2.20;;;;;;;22.33;37.11;95001.25;5070470;28;20567;-66
2021/06/15 11:16:46;;;;;;;7.47;2.20;;;;;;;22.60;36.76;95000.75;5070814;28;20207;-70
2021/06/15 11:19:14;;;;;;;7.57;2.03;;;;;;;22.31;36.42;94992.78;5069921;28;20226;-70
2021/06/15 11:21:46;;;;;;;3.60;2.27;;;;;;;22.62;37.12;94993.19;5057292;28;20193;-67
2021/06/15 11:24:41;;;;;;;10.73;2.33;;;;;;;22.76;36.67;94992.88;5058077;28;20211;-67
2021/06/15 11:27:27;;;;;;;3.77;1.77;;;;;;;22.61;36.63;94980.94;5070344;28;20272;-66
2021/06/15 11:30:18;;;;;;;5.30;1.90;;;;;;;22.32;36.69;94988.22;5070599;28;20543;-66
2021/06/15 11:32:57;;;;;;;4.10;2.27;;;;;;;22.43;36.50;94995.50;5068242;28;20709;-65
2021/06/15 11:35:28;;;;;;;5.57;2.60;;;;;;;22.50;36.77;94989.66;5055291;28;20218;-67
2021/06/15 11:37:55;;;;;;;5.50;1.87;;;;;;;21.81;37.02;94989.38;5062385;28;20286;-66
2021/06/15 11:40:30;;;;;;;2.50;1.80;;;;;;;22.19;36.68;94984.72;5056163;28;20223;-66
2021/06/15 11:43:11;;;;;;;2.37;2.00;;;;;;;22.49;36.92;94978.19;5069682;28;20207;-65
2021/06/15 11:45:43;;;;;;;5.30;2.07;;;;;;;21.97;37.75;94977.00;5064417;28;20271;-65
2021/06/15 11:48:19;;;;;;;9.07;2.00;;;;;;;22.22;38.68;94968.06;5062486;28;20199;-66
2021/06/15 11:50:48;;;;;;;6.33;2.00;;;;;;;22.24;38.36;94973.84;5070050;28;20516;-69
2021/06/15 11:53:19;;;;;;;3.23;1.73;;;;;;;21.89;38.35;94969.88;5070788;28;20196;-67
2021/06/15 11:56:07;;;;;;;3.53;1.90;;;;;;;21.89;37.33;94980.53;5069874;28;20196;-68